sensor_id;sensor_type;location;lat;lon;timestamp;pressure;altitude;pressure_sealevel;temperature;humidity
56414;BME280;42318;48.452;19.526;2023-11-19T00:01:40;98781.84;;;19.97;61.33
56414;BME280;42318;48.452;19.526;2023-11-19T00:04:41;98781.00;;;19.96;61.69
56414;BME280;42318;48.452;19.526;2023-11-19T00:07:42;98783.47;;;19.98;61.73
56414;BME280;42318;48.452;19.526;2023-11-19T00:10:43;98787.03;;;19.98;61.78
56414;BME280;42318;48.452;19.526;2023-11-19T00:13:43;98792.72;;;19.97;61.64
56414;BME280;42318;48.452;19.526;2023-11-19T00:16:44;98792.13;;;19.95;61.50
56414;BME280;42318;48.452;19.526;2023-11-19T00:19:45;98792.72;;;19.97;61.48
56414;BME280;42318;48.452;19.526;2023-11-19T00:22:47;98789.06;;;19.91;61.45
56414;BME280;42318;48.452;19.526;2023-11-19T00:25:49;98798.41;;;19.95;61.75
56414;BME280;42318;48.452;19.526;2023-11-19T00:28:49;98780.41;;;19.94;61.46
56414;BME280;42318;48.452;19.526;2023-11-19T00:31:50;98783.97;;;19.95;61.37
56414;BME280;42318;48.452;19.526;2023-11-19T00:34:50;98770.38;;;19.95;61.73
56414;BME280;42318;48.452;19.526;2023-11-19T00:37:51;98772.50;;;19.93;61.45
56414;BME280;42318;48.452;19.526;2023-11-19T00:40:54;98778.53;;;19.95;61.33
56414;BME280;42318;48.452;19.526;2023-11-19T00:43:55;98774.13;;;19.94;61.59
56414;BME280;42318;48.452;19.526;2023-11-19T00:46:55;98766.22;;;19.92;61.66
56414;BME280;42318;48.452;19.526;2023-11-19T00:49:56;98761.88;;;19.91;61.72
56414;BME280;42318;48.452;19.526;2023-11-19T00:52:57;98769.78;;;19.93;61.48
56414;BME280;42318;48.452;19.526;2023-11-19T00:55:57;98778.19;;;19.91;61.30
56414;BME280;42318;48.452;19.526;2023-11-19T00:58:58;98781.97;;;19.90;61.78
56414;BME280;42318;48.452;19.526;2023-11-19T01:02:00;98780.06;;;19.91;61.70
56414;BME280;42318;48.452;19.526;2023-11-19T01:05:08;98769.19;;;19.91;61.34
56414;BME280;42318;48.452;19.526;2023-11-19T01:08:09;98769.44;;;19.89;61.56
56414;BME280;42318;48.452;19.526;2023-11-19T01:11:19;98769.44;;;19.89;61.26
56414;BME280;42318;48.452;19.526;2023-11-19T01:14:21;98773.00;;;19.90;61.21
56414;BME280;42318;48.452;19.526;2023-11-19T01:17:22;98763.19;;;19.89;61.08
56414;BME280;42318;48.452;19.526;2023-11-19T01:20:22;98766.97;;;19.88;61.49
56414;BME280;42318;48.452;19.526;2023-11-19T01:23:23;98764.19;;;19.83;61.31
56414;BME280;42318;48.452;19.526;2023-11-19T01:26:24;98771.59;;;19.87;61.35
56414;BME280;42318;48.452;19.526;2023-11-19T01:29:24;98766.41;;;19.86;61.40
56414;BME280;42318;48.452;19.526;2023-11-19T01:32:25;98758.25;;;19.86;61.40
56414;BME280;42318;48.452;19.526;2023-11-19T01:35:26;98753.63;;;19.86;61.36
56414;BME280;42318;48.452;19.526;2023-11-19T01:38:26;98755.53;;;19.86;61.39
56414;BME280;42318;48.452;19.526;2023-11-19T01:41:27;98746.53;;;19.85;61.38
56414;BME280;42318;48.452;19.526;2023-11-19T01:44:28;98752.22;;;19.84;61.48
56414;BME280;42318;48.452;19.526;2023-11-19T01:47:30;98751.97;;;19.85;61.43
56414;BME280;42318;48.452;19.526;2023-11-19T01:50:31;98746.53;;;19.85;61.30
56414;BME280;42318;48.452;19.526;2023-11-19T01:53:34;98741.34;;;19.84;61.22
56414;BME280;42318;48.452;19.526;2023-11-19T01:56:38;98734.50;;;19.81;61.42
56414;BME280;42318;48.452;19.526;2023-11-19T01:59:41;98733.19;;;19.84;61.45
56414;BME280;42318;48.452;19.526;2023-11-19T02:02:43;98745.16;;;19.83;61.45
56414;BME280;42318;48.452;19.526;2023-11-19T02:05:45;98720.91;;;19.81;60.97
56414;BME280;42318;48.452;19.526;2023-11-19T02:08:47;98717.13;;;19.82;61.14
56414;BME280;42318;48.452;19.526;2023-11-19T02:11:47;98722.81;;;19.81;61.37
56414;BME280;42318;48.452;19.526;2023-11-19T02:14:51;98732.63;;;19.82;61.05
56414;BME280;42318;48.452;19.526;2023-11-19T02:17:52;98714.66;;;19.81;61.40
56414;BME280;42318;48.452;19.526;2023-11-19T02:20:56;98698.34;;;19.81;61.25
56414;BME280;42318;48.452;19.526;2023-11-19T02:23:57;98707.00;;;19.77;61.36
56414;BME280;42318;48.452;19.526;2023-11-19T02:27:02;98696.38;;;19.76;61.09
56414;BME280;42318;48.452;19.526;2023-11-19T02:30:06;98684.69;;;19.75;61.15
56414;BME280;42318;48.452;19.526;2023-11-19T02:33:09;98687.72;;;19.79;61.02
56414;BME280;42318;48.452;19.526;2023-11-19T02:36:09;98686.06;;;19.78;61.00
56414;BME280;42318;48.452;19.526;2023-11-19T02:39:10;98687.72;;;19.79;61.28
56414;BME280;42318;48.452;19.526;2023-11-19T02:42:12;98673.31;;;19.79;61.45
56414;BME280;42318;48.452;19.526;2023-11-19T02:45:14;98646.94;;;19.79;61.06
56414;BME280;42318;48.452;19.526;2023-11-19T02:48:15;98656.16;;;19.78;61.06
56414;BME280;42318;48.452;19.526;2023-11-19T02:51:16;98662.44;;;19.79;61.28
56414;BME280;42318;48.452;19.526;2023-11-19T02:54:18;98667.28;;;19.76;61.09
56414;BME280;42318;48.452;19.526;2023-11-19T02:57:21;98667.28;;;19.76;61.23
56414;BME280;42318;48.452;19.526;2023-11-19T03:00:23;98668.13;;;19.77;61.32
56414;BME280;42318;48.452;19.526;2023-11-19T03:03:48;98650.66;;;19.73;61.19
56414;BME280;42318;48.452;19.526;2023-11-19T03:06:54;98651.22;;;19.75;61.00
56414;BME280;42318;48.452;19.526;2023-11-19T03:09:55;98655.84;;;19.74;61.35
56414;BME280;42318;48.452;19.526;2023-11-19T03:12:55;98651.22;;;19.75;61.24
56414;BME280;42318;48.452;19.526;2023-11-19T03:15:57;98642.00;;;19.76;61.25
56414;BME280;42318;48.452;19.526;2023-11-19T03:18:57;98623.22;;;19.74;60.90
56414;BME280;42318;48.452;19.526;2023-11-19T03:22:01;98615.06;;;19.74;60.97
56414;BME280;42318;48.452;19.526;2023-11-19T03:25:02;98633.28;;;19.74;61.23
56414;BME280;42318;48.452;19.526;2023-11-19T03:28:03;98649.59;;;19.74;60.94
56414;BME280;42318;48.452;19.526;2023-11-19T03:31:07;98646.03;;;19.73;61.10
56414;BME280;42318;48.452;19.526;2023-11-19T03:34:10;98616.13;;;19.73;60.72
56414;BME280;42318;48.452;19.526;2023-11-19T03:37:11;98601.41;;;19.69;60.93
56414;BME280;42318;48.452;19.526;2023-11-19T03:40:13;98615.56;;;19.71;61.08
56414;BME280;42318;48.452;19.526;2023-11-19T03:43:14;98612.59;;;19.73;60.85
56414;BME280;42318;48.452;19.526;2023-11-19T03:46:20;98621.81;;;19.72;61.18
56414;BME280;42318;48.452;19.526;2023-11-19T03:49:20;98627.53;;;19.70;60.71
56414;BME280;42318;48.452;19.526;2023-11-19T03:52:21;98618.22;;;19.66;61.00
56414;BME280;42318;48.452;19.526;2023-11-19T03:55:21;98617.72;;;19.69;61.02
56414;BME280;42318;48.452;19.526;2023-11-19T03:58:22;98595.97;;;19.69;60.75
56414;BME280;42318;48.452;19.526;2023-11-19T04:01:23;98583.19;;;19.70;60.85
56414;BME280;42318;48.452;19.526;2023-11-19T04:04:24;98588.88;;;19.68;60.92
56414;BME280;42318;48.452;19.526;2023-11-19T04:07:24;98586.75;;;19.70;60.97
56414;BME280;42318;48.452;19.526;2023-11-19T04:10:25;98582.38;;;19.69;60.86
56414;BME280;42318;48.452;19.526;2023-11-19T04:13:27;98571.19;;;19.66;60.78
56414;BME280;42318;48.452;19.526;2023-11-19T04:16:28;98578.00;;;19.68;61.32
56414;BME280;42318;48.452;19.526;2023-11-19T04:19:29;98573.66;;;19.67;61.06
56414;BME280;42318;48.452;19.526;2023-11-19T04:22:29;98569.84;;;19.68;61.04
56414;BME280;42318;48.452;19.526;2023-11-19T04:25:30;98568.22;;;19.67;61.17
56414;BME280;42318;48.452;19.526;2023-11-19T04:28:31;98575.53;;;19.67;61.08
56414;BME280;42318;48.452;19.526;2023-11-19T04:31:31;98560.06;;;19.67;60.88
56414;BME280;42318;48.452;19.526;2023-11-19T04:34:32;98538.81;;;19.64;60.93
56414;BME280;42318;48.452;19.526;2023-11-19T04:37:32;98547.53;;;19.66;60.98
56414;BME280;42318;48.452;19.526;2023-11-19T04:40:33;98539.38;;;19.66;60.76
56414;BME280;42318;48.452;19.526;2023-11-19T04:43:34;98535.53;;;19.62;60.83
56414;BME280;42318;48.452;19.526;2023-11-19T04:46:34;98545.91;;;19.65;60.77
56414;BME280;42318;48.452;19.526;2023-11-19T04:49:35;98563.03;;;19.66;61.04
56414;BME280;42318;48.452;19.526;2023-11-19T04:52:39;98559.50;;;19.65;60.69
56414;BME280;42318;48.452;19.526;2023-11-19T04:55:45;98563.28;;;19.64;60.83
56414;BME280;42318;48.452;19.526;2023-11-19T04:58:46;98564.09;;;19.65;61.07
56414;BME280;42318;48.452;19.526;2023-11-19T05:01:47;98573.09;;;19.65;61.11
56414;BME280;42318;48.452;19.526;2023-11-19T05:04:48;98576.06;;;19.64;60.67
56414;BME280;42318;48.452;19.526;2023-11-19T05:07:49;98582.31;;;19.64;61.02
56414;BME280;42318;48.452;19.526;2023-11-19T05:10:50;98590.47;;;19.64;60.62
56414;BME280;42318;48.452;19.526;2023-11-19T05:13:50;98586.94;;;19.64;60.71
56414;BME280;42318;48.452;19.526;2023-11-19T05:16:51;98574.41;;;19.63;61.08
56414;BME280;42318;48.452;19.526;2023-11-19T05:19:52;98568.97;;;19.63;60.79
56414;BME280;42318;48.452;19.526;2023-11-19T05:22:52;98561.88;;;19.62;60.98
56414;BME280;42318;48.452;19.526;2023-11-19T05:25:53;98569.78;;;19.63;61.23
56414;BME280;42318;48.452;19.526;2023-11-19T05:28:54;98578.19;;;19.62;60.80
56414;BME280;42318;48.452;19.526;2023-11-19T05:31:54;98577.13;;;19.63;61.10
56414;BME280;42318;48.452;19.526;2023-11-19T05:34:56;98580.91;;;19.62;61.07
56414;BME280;42318;48.452;19.526;2023-11-19T05:37:56;98585.28;;;19.63;61.03
56414;BME280;42318;48.452;19.526;2023-11-19T05:40:57;98572.75;;;19.62;60.84
56414;BME280;42318;48.452;19.526;2023-11-19T05:43:57;98574.91;;;19.60;61.10
56414;BME280;42318;48.452;19.526;2023-11-19T05:46:58;98582.81;;;19.61;60.75
56414;BME280;42318;48.452;19.526;2023-11-19T05:49:59;98573.00;;;19.60;60.92
56414;BME280;42318;48.452;19.526;2023-11-19T05:52:59;98568.41;;;19.61;60.86
56414;BME280;42318;48.452;19.526;2023-11-19T05:56:00;98571.94;;;19.61;60.75
56414;BME280;42318;48.452;19.526;2023-11-19T05:59:04;98582.00;;;19.61;60.95
56414;BME280;42318;48.452;19.526;2023-11-19T06:02:07;98575.72;;;19.60;61.08
56414;BME280;42318;48.452;19.526;2023-11-19T06:05:08;98560.69;;;19.53;61.17
56414;BME280;42318;48.452;19.526;2023-11-19T06:08:09;98570.28;;;19.60;60.85
56414;BME280;42318;48.452;19.526;2023-11-19T06:11:10;98574.34;;;19.58;61.10
56414;BME280;42318;48.452;19.526;2023-11-19T06:14:18;98562.97;;;19.61;60.97
56414;BME280;42318;48.452;19.526;2023-11-19T06:17:19;98558.59;;;19.60;60.88
56414;BME280;42318;48.452;19.526;2023-11-19T06:20:20;98540.41;;;19.60;61.06
56414;BME280;42318;48.452;19.526;2023-11-19T06:23:21;98525.09;;;19.54;61.00
56414;BME280;42318;48.452;19.526;2023-11-19T06:26:21;98533.31;;;19.59;60.86
56414;BME280;42318;48.452;19.526;2023-11-19T06:29:23;98530.59;;;19.59;60.86
56414;BME280;42318;48.452;19.526;2023-11-19T06:32:24;98528.13;;;19.58;61.03
56414;BME280;42318;48.452;19.526;2023-11-19T06:35:25;98532.50;;;19.59;60.64
56414;BME280;42318;48.452;19.526;2023-11-19T06:38:25;98547.97;;;19.58;61.07
56414;BME280;42318;48.452;19.526;2023-11-19T06:41:27;98550.69;;;19.58;60.82
56414;BME280;42318;48.452;19.526;2023-11-19T06:44:29;98546.34;;;19.57;60.94
56414;BME280;42318;48.452;19.526;2023-11-19T06:47:30;98547.97;;;19.58;60.82
56414;BME280;42318;48.452;19.526;2023-11-19T06:50:31;98544.69;;;19.56;60.81
56414;BME280;42318;48.452;19.526;2023-11-19T06:53:32;98539.75;;;19.53;61.08
56414;BME280;42318;48.452;19.526;2023-11-19T06:56:32;98549.06;;;19.57;60.61
56414;BME280;42318;48.452;19.526;2023-11-19T06:59:33;98538.19;;;19.57;60.82
56414;BME280;42318;48.452;19.526;2023-11-19T07:02:33;98542.53;;;19.58;60.88
56414;BME280;42318;48.452;19.526;2023-11-19T07:05:36;98532.75;;;19.57;60.95
56414;BME280;42318;48.452;19.526;2023-11-19T07:08:39;98553.66;;;19.57;61.01
56414;BME280;42318;48.452;19.526;2023-11-19T07:11:40;98550.69;;;19.58;61.01
56414;BME280;42318;48.452;19.526;2023-11-19T07:14:41;98534.41;;;19.58;60.87
56414;BME280;42318;48.452;19.526;2023-11-19T07:17:42;98533.81;;;19.56;60.68
56414;BME280;42318;48.452;19.526;2023-11-19T07:20:44;98534.41;;;19.58;61.22
56414;BME280;42318;48.452;19.526;2023-11-19T07:23:46;98521.88;;;19.57;61.14
56414;BME280;42318;48.452;19.526;2023-11-19T07:26:47;98494.13;;;19.55;61.14
56414;BME280;42318;48.452;19.526;2023-11-19T07:29:48;98489.25;;;19.57;61.04
56414;BME280;42318;48.452;19.526;2023-11-19T07:32:49;98498.50;;;19.56;60.80
56414;BME280;42318;48.452;19.526;2023-11-19T07:35:50;98476.75;;;19.56;61.04
56414;BME280;42318;48.452;19.526;2023-11-19T07:38:51;98488.44;;;19.57;61.09
56414;BME280;42318;48.452;19.526;2023-11-19T07:41:52;98521.88;;;19.57;61.08
56414;BME280;42318;48.452;19.526;2023-11-19T07:44:52;98587.09;;;19.57;61.08
56414;BME280;42318;48.452;19.526;2023-11-19T07:47:55;98555.56;;;19.56;60.71
56414;BME280;42318;48.452;19.526;2023-11-19T07:50:55;98533.81;;;19.56;61.05
56414;BME280;42318;48.452;19.526;2023-11-19T07:53:56;98531.09;;;19.56;61.10
56414;BME280;42318;48.452;19.526;2023-11-19T07:56:56;98523.78;;;19.57;60.82
56414;BME280;42318;48.452;19.526;2023-11-19T07:59:57;98494.13;;;19.55;60.77
56414;BME280;42318;48.452;19.526;2023-11-19T08:02:58;98501.22;;;19.56;60.73
56414;BME280;42318;48.452;19.526;2023-11-19T08:05:59;98516.44;;;19.57;61.08
56414;BME280;42318;48.452;19.526;2023-11-19T08:09:00;98509.88;;;19.53;61.14
56414;BME280;42318;48.452;19.526;2023-11-19T08:12:00;98524.59;;;19.57;60.83
56414;BME280;42318;48.452;19.526;2023-11-19T08:15:02;98521.06;;;19.57;61.13
56414;BME280;42318;48.452;19.526;2023-11-19T08:18:03;98513.16;;;19.55;61.01
56414;BME280;42318;48.452;19.526;2023-11-19T08:21:04;98493.06;;;19.56;61.03
56414;BME280;42318;48.452;19.526;2023-11-19T08:24:06;98504.50;;;19.58;61.08
56414;BME280;42318;48.452;19.526;2023-11-19T08:27:06;98508.53;;;19.56;60.96
56414;BME280;42318;48.452;19.526;2023-11-19T08:30:07;98490.34;;;19.56;61.13
56414;BME280;42318;48.452;19.526;2023-11-19T08:33:08;98494.97;;;19.56;60.85
56414;BME280;42318;48.452;19.526;2023-11-19T08:36:09;98481.88;;;19.53;60.58
56414;BME280;42318;48.452;19.526;2023-11-19T08:39:15;98469.66;;;19.55;60.96
56414;BME280;42318;48.452;19.526;2023-11-19T08:42:16;98476.75;;;19.56;60.65
56414;BME280;42318;48.452;19.526;2023-11-19T08:45:17;98476.75;;;19.56;61.13
56414;BME280;42318;48.452;19.526;2023-11-19T08:48:18;98444.66;;;19.53;60.92
56414;BME280;42318;48.452;19.526;2023-11-19T08:51:18;98440.84;;;19.54;60.97
56414;BME280;42318;48.452;19.526;2023-11-19T08:54:19;98446.03;;;19.56;61.05
56414;BME280;42318;48.452;19.526;2023-11-19T08:57:21;98461.25;;;19.57;60.83
56414;BME280;42318;48.452;19.526;2023-11-19T09:00:22;98460.13;;;19.53;60.65
56414;BME280;42318;48.452;19.526;2023-11-19T09:03:23;98481.94;;;19.58;61.04
56414;BME280;42318;48.452;19.526;2023-11-19T09:06:24;98478.66;;;19.56;61.03
56414;BME280;42318;48.452;19.526;2023-11-19T09:09:24;98464.81;;;19.57;61.08
56414;BME280;42318;48.452;19.526;2023-11-19T09:12:25;98465.88;;;19.56;61.03
56414;BME280;42318;48.452;19.526;2023-11-19T09:15:26;98469.66;;;19.55;60.93
56414;BME280;42318;48.452;19.526;2023-11-19T09:18:27;98462.59;;;19.54;61.13
56414;BME280;42318;48.452;19.526;2023-11-19T09:21:27;98459.38;;;19.57;61.40
56414;BME280;42318;48.452;19.526;2023-11-19T09:24:30;98438.69;;;19.56;61.13
56414;BME280;42318;48.452;19.526;2023-11-19T09:27:30;98438.69;;;19.56;61.19
56414;BME280;42318;48.452;19.526;2023-11-19T09:30:31;98421.22;;;19.52;61.16
56414;BME280;42318;48.452;19.526;2023-11-19T09:33:34;98410.03;;;19.49;61.00
56414;BME280;42318;48.452;19.526;2023-11-19T09:36:35;98398.75;;;19.57;61.29
56414;BME280;42318;48.452;19.526;2023-11-19T09:39:35;98408.56;;;19.58;61.21
56414;BME280;42318;48.452;19.526;2023-11-19T09:42:43;98412.09;;;19.58;61.48
56414;BME280;42318;48.452;19.526;2023-11-19T09:45:49;98431.94;;;19.59;61.51
56414;BME280;42318;48.452;19.526;2023-11-19T09:48:52;98447.41;;;19.58;61.31
56414;BME280;42318;48.452;19.526;2023-11-19T09:51:55;98420.75;;;19.55;61.71
56414;BME280;42318;48.452;19.526;2023-11-19T09:54:55;98409.38;;;19.58;61.42
56414;BME280;42318;48.452;19.526;2023-11-19T09:57:56;98413.47;;;19.61;61.79
56414;BME280;42318;48.452;19.526;2023-11-19T10:01:00;98411.00;;;19.59;62.03
56414;BME280;42318;48.452;19.526;2023-11-19T10:04:03;98395.72;;;19.53;61.89
56414;BME280;42318;48.452;19.526;2023-11-19T10:07:05;98400.97;;;19.60;62.17
56414;BME280;42318;48.452;19.526;2023-11-19T10:10:06;98401.78;;;19.60;62.51
56414;BME280;42318;48.452;19.526;2023-11-19T10:13:08;98391.72;;;19.61;62.69
56414;BME280;42318;48.452;19.526;2023-11-19T10:16:09;98394.19;;;19.62;63.05
56414;BME280;42318;48.452;19.526;2023-11-19T10:19:18;98393.94;;;19.64;62.86
56414;BME280;42318;48.452;19.526;2023-11-19T10:22:22;98379.78;;;19.62;63.07
56414;BME280;42318;48.452;19.526;2023-11-19T10:25:28;98368.59;;;19.58;63.58
56414;BME280;42318;48.452;19.526;2023-11-19T10:28:38;98372.44;;;19.62;63.40
56414;BME280;42318;48.452;19.526;2023-11-19T10:31:39;98367.53;;;19.59;63.56
56414;BME280;42318;48.452;19.526;2023-11-19T10:34:40;98383.31;;;19.62;63.86
56414;BME280;42318;48.452;19.526;2023-11-19T10:37:42;98365.88;;;19.58;64.15
56414;BME280;42318;48.452;19.526;2023-11-19T10:40:43;98372.19;;;19.64;63.99
56414;BME280;42318;48.452;19.526;2023-11-19T10:43:44;98371.38;;;19.63;64.06
56414;BME280;42318;48.452;19.526;2023-11-19T10:46:45;98378.44;;;19.64;63.78
56414;BME280;42318;48.452;19.526;2023-11-19T10:49:46;98368.66;;;19.63;63.94
56414;BME280;42318;48.452;19.526;2023-11-19T10:52:47;98364.84;;;19.64;64.23
56414;BME280;42318;48.452;19.526;2023-11-19T10:55:49;98354.25;;;19.63;63.78
56414;BME280;42318;48.452;19.526;2023-11-19T10:58:51;98351.75;;;19.56;63.84
56414;BME280;42318;48.452;19.526;2023-11-19T11:01:53;98367.31;;;19.66;63.71
56414;BME280;42318;48.452;19.526;2023-11-19T11:04:57;98346.09;;;19.63;63.95
56414;BME280;42318;48.452;19.526;2023-11-19T11:08:00;98350.19;;;19.65;64.20
56414;BME280;42318;48.452;19.526;2023-11-19T11:11:01;98326.25;;;19.62;63.81
56414;BME280;42318;48.452;19.526;2023-11-19T11:14:05;98321.38;;;19.64;64.25
56414;BME280;42318;48.452;19.526;2023-11-19T11:17:09;98326.00;;;19.64;64.19
56414;BME280;42318;48.452;19.526;2023-11-19T11:20:11;98328.72;;;19.64;64.74
56414;BME280;42318;48.452;19.526;2023-11-19T11:30:11;98321.38;;;19.64;65.11
56414;BME280;42318;48.452;19.526;2023-11-19T11:33:25;98317.84;;;19.64;65.39
56414;BME280;42318;48.452;19.526;2023-11-19T11:36:58;98317.84;;;19.64;65.23
56414;BME280;42318;48.452;19.526;2023-11-19T11:39:57;98314.84;;;19.65;65.33
56414;BME280;42318;48.452;19.526;2023-11-19T11:42:59;98311.31;;;19.65;64.75
56414;BME280;42318;48.452;19.526;2023-11-19T11:46:00;98300.72;;;19.63;64.94
56414;BME280;42318;48.452;19.526;2023-11-19T11:49:07;98306.69;;;19.65;64.75
56414;BME280;42318;48.452;19.526;2023-11-19T11:52:10;98310.25;;;19.66;64.63
56414;BME280;42318;48.452;19.526;2023-11-19T11:55:14;98296.34;;;19.62;64.62
56414;BME280;42318;48.452;19.526;2023-11-19T11:58:22;98301.28;;;19.65;64.68
56414;BME280;42318;48.452;19.526;2023-11-19T12:01:25;98293.13;;;19.65;64.34
56414;BME280;42318;48.452;19.526;2023-11-19T12:04:28;98284.97;;;19.65;64.35
56414;BME280;42318;48.452;19.526;2023-11-19T12:07:29;98278.44;;;19.66;64.58
56414;BME280;42318;48.452;19.526;2023-11-19T12:10:51;98290.41;;;19.65;64.56
56414;BME280;42318;48.452;19.526;2023-11-19T12:13:56;98275.16;;;19.64;64.45
56414;BME280;42318;48.452;19.526;2023-11-19T12:17:03;98279.53;;;19.65;64.56
56414;BME280;42318;48.452;19.526;2023-11-19T12:20:14;98244.00;;;19.50;64.22
56414;BME280;42318;48.452;19.526;2023-11-19T12:23:15;98253.16;;;19.66;64.01
56414;BME280;42318;48.452;19.526;2023-11-19T12:26:36;98259.41;;;19.66;64.00
56414;BME280;42318;48.452;19.526;2023-11-19T12:29:43;98245.81;;;19.66;64.07
56414;BME280;42318;48.452;19.526;2023-11-19T12:32:45;98237.69;;;19.66;63.70
56414;BME280;42318;48.452;19.526;2023-11-19T12:35:47;98250.44;;;19.66;63.78
56414;BME280;42318;48.452;19.526;2023-11-19T12:38:48;98237.94;;;19.65;63.94
56414;BME280;42318;48.452;19.526;2023-11-19T12:41:50;98223.53;;;19.64;63.68
56414;BME280;42318;48.452;19.526;2023-11-19T12:44:55;98239.84;;;19.64;63.69
56414;BME280;42318;48.452;19.526;2023-11-19T12:48:05;98204.72;;;19.58;63.64
56414;BME280;42318;48.452;19.526;2023-11-19T12:51:06;98208.84;;;19.65;63.82
56414;BME280;42318;48.452;19.526;2023-11-19T12:54:08;98191.47;;;19.66;63.69
56414;BME280;42318;48.452;19.526;2023-11-19T12:57:08;98187.94;;;19.66;63.70
56414;BME280;42318;48.452;19.526;2023-11-19T13:00:19;98186.03;;;19.66;63.84
56414;BME280;42318;48.452;19.526;2023-11-19T13:03:34;98190.91;;;19.64;63.63
56414;BME280;42318;48.452;19.526;2023-11-19T13:06:44;98196.34;;;19.64;63.39
56414;BME280;42318;48.452;19.526;2023-11-19T13:09:45;98190.91;;;19.64;63.58
56414;BME280;42318;48.452;19.526;2023-11-19T13:16:03;98181.94;;;19.64;63.70
56414;BME280;42318;48.452;19.526;2023-11-19T13:19:06;98176.72;;;19.57;63.69
56414;BME280;42318;48.452;19.526;2023-11-19T13:22:06;98189.28;;;19.63;63.42
56414;BME280;42318;48.452;19.526;2023-11-19T13:25:07;98181.38;;;19.62;63.52
56414;BME280;42318;48.452;19.526;2023-11-19T13:28:08;98176.50;;;19.64;63.38
56414;BME280;42318;48.452;19.526;2023-11-19T13:31:08;98161.00;;;19.64;63.39
56414;BME280;42318;48.452;19.526;2023-11-19T13:34:10;98167.53;;;19.63;63.20
56414;BME280;42318;48.452;19.526;2023-11-19T13:37:11;98147.09;;;19.56;63.24
56414;BME280;42318;48.452;19.526;2023-11-19T13:40:12;98151.22;;;19.63;63.18
56414;BME280;42318;48.452;19.526;2023-11-19T13:43:16;98144.16;;;19.62;63.44
56414;BME280;42318;48.452;19.526;2023-11-19T13:46:16;98149.84;;;19.61;63.43
56414;BME280;42318;48.452;19.526;2023-11-19T13:49:17;98147.94;;;19.61;63.51
56414;BME280;42318;48.452;19.526;2023-11-19T13:52:19;98148.75;;;19.62;63.20
56414;BME280;42318;48.452;19.526;2023-11-19T13:55:20;98171.31;;;19.62;63.52
56414;BME280;42318;48.452;19.526;2023-11-19T13:58:22;98175.69;;;19.63;63.25
56414;BME280;42318;48.452;19.526;2023-11-19T14:01:23;98168.59;;;19.62;63.21
56414;BME280;42318;48.452;19.526;2023-11-19T14:04:23;98156.66;;;19.63;63.43
56414;BME280;42318;48.452;19.526;2023-11-19T14:07:25;98159.38;;;19.63;63.41
56414;BME280;42318;48.452;19.526;2023-11-19T14:10:26;98157.75;;;19.62;63.42
56414;BME280;42318;48.452;19.526;2023-11-19T14:13:26;98178.41;;;19.63;63.28
56414;BME280;42318;48.452;19.526;2023-11-19T14:16:27;98163.97;;;19.58;63.46
56414;BME280;42318;48.452;19.526;2023-11-19T14:19:28;98185.72;;;19.63;63.38
56414;BME280;42318;48.452;19.526;2023-11-19T14:22:30;98161.53;;;19.61;63.33
56414;BME280;42318;48.452;19.526;2023-11-19T14:25:31;98174.03;;;19.62;63.00
56414;BME280;42318;48.452;19.526;2023-11-19T14:28:31;98183.03;;;19.63;63.40
56414;BME280;42318;48.452;19.526;2023-11-19T14:31:32;98177.59;;;19.63;62.96
56414;BME280;42318;48.452;19.526;2023-11-19T14:34:32;98180.56;;;19.61;63.05
56414;BME280;42318;48.452;19.526;2023-11-19T14:37:33;98173.50;;;19.60;63.20
56414;BME280;42318;48.452;19.526;2023-11-19T14:40:34;98168.06;;;19.60;62.75
56414;BME280;42318;48.452;19.526;2023-11-19T14:43:35;98166.16;;;19.61;63.16
56414;BME280;42318;48.452;19.526;2023-11-19T14:46:36;98165.34;;;19.60;63.15
56414;BME280;42318;48.452;19.526;2023-11-19T14:49:37;98157.19;;;19.60;62.73
56414;BME280;42318;48.452;19.526;2023-11-19T14:52:37;98150.09;;;19.59;63.14
56414;BME280;42318;48.452;19.526;2023-11-19T14:55:38;98136.97;;;19.51;63.08
56414;BME280;42318;48.452;19.526;2023-11-19T14:58:39;98152.78;;;19.54;63.03
56414;BME280;42318;48.452;19.526;2023-11-19T15:01:40;98150.09;;;19.59;63.03
56414;BME280;42318;48.452;19.526;2023-11-19T15:04:40;98144.63;;;19.54;62.73
56414;BME280;42318;48.452;19.526;2023-11-19T15:07:42;98144.13;;;19.57;62.70
56414;BME280;42318;48.452;19.526;2023-11-19T15:10:43;98135.66;;;19.54;62.68
56414;BME280;42318;48.452;19.526;2023-11-19T15:13:45;98134.03;;;19.53;62.91
56414;BME280;42318;48.452;19.526;2023-11-19T15:16:46;98148.19;;;19.55;62.77
56414;BME280;42318;48.452;19.526;2023-11-19T15:19:47;98120.47;;;19.58;62.80
56414;BME280;42318;48.452;19.526;2023-11-19T15:22:49;98089.75;;;19.57;62.57
56414;BME280;42318;48.452;19.526;2023-11-19T15:25:50;98088.69;;;19.58;62.45
56414;BME280;42318;48.452;19.526;2023-11-19T15:28:51;98115.00;;;19.53;62.87
56414;BME280;42318;48.452;19.526;2023-11-19T15:31:57;98145.19;;;19.56;62.68
56414;BME280;42318;48.452;19.526;2023-11-19T15:34:58;98120.75;;;19.56;62.24
56414;BME280;42318;48.452;19.526;2023-11-19T15:37:59;98138.94;;;19.56;62.38
56414;BME280;42318;48.452;19.526;2023-11-19T15:40:59;98132.69;;;19.55;62.44
56414;BME280;42318;48.452;19.526;2023-11-19T15:44:03;98140.84;;;19.55;62.20
56414;BME280;42318;48.452;19.526;2023-11-19T15:47:04;98126.16;;;19.56;62.38
56414;BME280;42318;48.452;19.526;2023-11-19T15:50:06;98131.06;;;19.54;62.21
56414;BME280;42318;48.452;19.526;2023-11-19T15:53:07;98131.06;;;19.54;62.59
56414;BME280;42318;48.452;19.526;2023-11-19T15:56:08;98113.94;;;19.54;62.42
56414;BME280;42318;48.452;19.526;2023-11-19T15:59:09;98128.59;;;19.53;62.37
56414;BME280;42318;48.452;19.526;2023-11-19T16:02:10;98119.00;;;19.50;62.15